Time;durP1;ratioP1;P1;durP2;ratioP2;P2;SDS_P1;SDS_P2;PMS_P1;PMS_P2;Temp;Humidity;BMP_temperature;BMP_pressure;BME280_temperature;BME280_humidity;BME280_pressure;Samples;Min_cycle;Max_cycle;Signal;HPM_P1;HPM_P2
2021/06/03 00:01:05;;;;;;;6.25;3.03;;;22.00;54.50;;;;;;10418406;28;20385;-61
2021/06/03 00:06:06;;;;;;;3.53;2.75;;;22.00;54.60;;;;;;10418516;28;20064;-61
2021/06/03 00:11:13;;;;;;;3.75;3.08;;;22.00;54.70;;;;;;10418408;28;20026;-61
2021/06/03 00:16:16;;;;;;;3.50;2.78;;;22.00;54.70;;;;;;10420784;28;20116;-60
2021/06/03 00:21:17;;;;;;;3.90;2.85;;;22.00;54.70;;;;;;10417824;28;20071;-61
2021/06/03 00:26:18;;;;;;;4.07;3.15;;;22.00;54.80;;;;;;10417456;28;20061;-61
2021/06/03 00:31:18;;;;;;;3.15;2.58;;;22.00;54.80;;;;;;10417506;28;20087;-60
2021/06/03 00:36:19;;;;;;;3.60;2.92;;;22.00;54.90;;;;;;10416673;28;20042;-61
2021/06/03 00:41:20;;;;;;;3.42;2.85;;;22.00;54.90;;;;;;10417004;28;20037;-61
2021/06/03 00:46:21;;;;;;;4.25;3.00;;;21.90;54.90;;;;;;10416875;28;20036;-61
2021/06/03 00:51:24;;;;;;;3.92;3.00;;;21.90;55.00;;;;;;10416575;28;20390;-61
2021/06/03 00:56:25;;;;;;;3.15;2.85;;;21.90;55.00;;;;;;10409258;28;20029;-59
2021/06/03 01:01:25;;;;;;;3.10;2.50;;;21.90;55.10;;;;;;10412530;28;20511;-60
2021/06/03 01:06:27;;;;;;;3.67;2.97;;;21.90;55.10;;;;;;10415555;28;20029;-61
2021/06/03 01:12:05;;;;;;;4.38;2.92;;;21.90;55.10;;;;;;10415884;28;20037;-60
2021/06/03 01:17:07;;;;;;;4.13;3.17;;;21.90;55.20;;;;;;10410698;28;20070;-60
2021/06/03 01:22:22;;;;;;;3.58;3.00;;;21.90;55.20;;;;;;10415498;28;20099;-60
2021/06/03 01:27:30;;;;;;;3.25;2.85;;;21.90;55.30;;;;;;10415274;28;20037;-60
2021/06/03 01:32:35;;;;;;;3.75;2.92;;;21.90;55.40;;;;;;10414944;28;20029;-60
2021/06/03 01:37:37;;;;;;;2.75;2.22;;;21.90;55.40;;;;;;10413296;28;20099;-60
2021/06/03 01:42:39;;;;;;;3.58;2.75;;;21.90;55.40;;;;;;10413755;28;20029;-60
2021/06/03 01:47:41;;;;;;;4.72;3.28;;;21.90;55.50;;;;;;10413812;28;20477;-61
2021/06/03 01:52:42;;;;;;;3.28;2.83;;;21.90;55.60;;;;;;10414405;28;20535;-60
2021/06/03 01:57:44;;;;;;;3.30;2.83;;;21.90;55.60;;;;;;10404284;28;20041;-61
2021/06/03 02:02:45;;;;;;;4.50;2.72;;;21.90;55.60;;;;;;10412321;28;20040;-60
2021/06/03 02:07:46;;;;;;;5.38;2.97;;;21.90;55.60;;;;;;10414406;28;20453;-60
2021/06/03 02:12:53;;;;;;;3.60;2.95;;;21.90;55.70;;;;;;10417420;28;20042;-60
2021/06/03 02:17:59;;;;;;;4.88;3.20;;;21.90;55.70;;;;;;10413896;28;20389;-61
2021/06/03 02:23:01;;;;;;;4.40;2.80;;;21.90;55.80;;;;;;10412669;28;20034;-61
2021/06/03 02:28:04;;;;;;;3.53;2.95;;;21.90;55.80;;;;;;10412684;28;20102;-61
2021/06/03 02:33:07;;;;;;;3.30;2.92;;;21.90;55.90;;;;;;10413603;28;20041;-61
2021/06/03 02:38:08;;;;;;;4.32;3.40;;;21.90;55.90;;;;;;10413818;28;20042;-61
2021/06/03 02:43:09;;;;;;;5.07;2.50;;;21.90;56.00;;;;;;10413353;28;20478;-61
2021/06/03 02:48:10;;;;;;;3.45;2.83;;;21.80;56.00;;;;;;10413472;28;20033;-60
2021/06/03 02:53:11;;;;;;;3.08;2.63;;;21.80;56.00;;;;;;10413126;28;20032;-61
2021/06/03 02:58:13;;;;;;;4.30;2.75;;;21.80;56.10;;;;;;10412037;28;20034;-61
2021/06/03 03:03:14;;;;;;;4.60;2.42;;;21.80;56.10;;;;;;10411762;28;20032;-60
2021/06/03 03:08:14;;;;;;;3.47;2.85;;;21.80;56.20;;;;;;10411687;28;20044;-61
2021/06/03 03:13:16;;;;;;;4.30;2.75;;;21.80;56.20;;;;;;10414407;28;20040;-61
2021/06/03 03:18:17;;;;;;;3.65;3.00;;;21.80;56.30;;;;;;10416919;28;20819;-60
2021/06/03 03:23:18;;;;;;;4.05;2.63;;;21.80;56.30;;;;;;10417084;28;20026;-61
2021/06/03 03:28:19;;;;;;;2.60;2.40;;;21.80;56.30;;;;;;10417339;28;20034;-60
2021/06/03 03:33:20;;;;;;;3.88;2.85;;;21.80;56.40;;;;;;10419444;28;20048;-60
2021/06/03 03:38:22;;;;;;;3.10;2.75;;;21.80;56.40;;;;;;10419182;28;20049;-61
2021/06/03 03:43:23;;;;;;;3.17;2.70;;;21.80;56.50;;;;;;10419084;28;20061;-60
2021/06/03 03:48:24;;;;;;;4.05;3.10;;;21.80;56.60;;;;;;10419393;28;20060;-61
2021/06/03 03:53:24;;;;;;;4.13;3.00;;;21.80;56.60;;;;;;10418487;28;20034;-61
2021/06/03 03:58:25;;;;;;;3.70;2.97;;;21.80;56.60;;;;;;10418569;28;20036;-60
2021/06/03 04:03:26;;;;;;;3.10;2.67;;;21.70;56.50;;;;;;10418342;28;20024;-61
2021/06/03 04:08:27;;;;;;;4.13;3.00;;;21.80;56.70;;;;;;10433700;28;20116;-60
2021/06/03 04:13:27;;;;;;;3.30;2.55;;;21.70;56.60;;;;;;10419182;28;20033;-60
2021/06/03 04:18:28;;;;;;;3.08;2.72;;;21.80;56.80;;;;;;10416719;28;20041;-61
2021/06/03 04:23:29;;;;;;;3.20;2.65;;;21.70;56.70;;;;;;10416180;28;20631;-61
2021/06/03 04:28:29;;;;;;;2.80;2.50;;;21.70;56.70;;;;;;10416017;28;20104;-61
2021/06/03 04:33:31;;;;;;;4.57;3.53;;;21.70;57.50;;;;;;10415785;28;20033;-61
2021/06/03 04:38:31;;;;;;;3.60;2.72;;;21.70;56.90;;;;;;10413416;28;20385;-61
2021/06/03 04:43:32;;;;;;;3.30;3.00;;;21.70;56.90;;;;;;10415701;28;20025;-60
2021/06/03 04:48:33;;;;;;;3.17;2.88;;;21.70;56.90;;;;;;10415139;28;20083;-61
2021/06/03 04:53:34;;;;;;;3.47;2.67;;;21.70;57.00;;;;;;10416276;28;20065;-60
2021/06/03 04:58:35;;;;;;;3.80;2.40;;;21.70;57.10;;;;;;10402376;28;20064;-61
2021/06/03 05:03:36;;;;;;;4.85;2.90;;;21.70;57.10;;;;;;10415838;28;20120;-60
2021/06/03 05:08:37;;;;;;;4.75;3.20;;;21.70;57.10;;;;;;10414900;28;20025;-58
2021/06/03 05:13:38;;;;;;;5.00;2.95;;;21.70;58.00;;;;;;10417547;28;20060;-61
2021/06/03 05:18:38;;;;;;;7.18;3.17;;;21.80;58.80;;;;;;10414605;28;20030;-59
2021/06/03 05:23:39;;;;;;;7.57;3.13;;;21.80;59.20;;;;;;10414271;28;20068;-61
2021/06/03 05:28:40;;;;;;;7.78;2.97;;;21.80;59.50;;;;;;10412166;28;20044;-61
2021/06/03 05:33:40;;;;;;;5.68;2.72;;;21.80;59.30;;;;;;10414911;28;20071;-59
2021/06/03 05:38:41;;;;;;;9.35;3.72;;;21.90;59.60;;;;;;10413875;28;20394;-57
2021/06/03 05:43:42;;;;;;;7.07;3.58;;;21.90;59.60;;;;;;10414184;28;20041;-58
2021/06/03 05:48:43;;;;;;;7.00;4.90;;;21.90;59.40;;;;;;10414794;28;20040;-59
2021/06/03 05:53:44;;;;;;;7.70;4.00;;;21.90;60.40;;;;;;10413770;28;20068;-61
2021/06/03 05:58:45;;;;;;;11.85;5.40;;;21.80;60.10;;;;;;10414374;28;20115;-60
2021/06/03 06:03:50;;;;;;;7.53;5.50;;;21.90;60.00;;;;;;10412347;28;20037;-59
2021/06/03 06:09:00;;;;;;;7.03;4.28;;;21.80;60.50;;;;;;10412254;28;20037;-60
2021/06/03 06:14:03;;;;;;;5.78;4.50;;;21.80;60.50;;;;;;10414545;28;20478;-59
2021/06/03 06:19:05;;;;;;;6.63;4.30;;;21.80;60.60;;;;;;10412821;28;20035;-59
2021/06/03 06:24:08;;;;;;;11.05;5.47;;;21.80;60.10;;;;;;10412617;28;20026;-61
2021/06/03 06:29:08;;;;;;;7.00;5.15;;;21.80;60.90;;;;;;10410310;28;20041;-56
2021/06/03 06:34:09;;;;;;;6.75;4.80;;;21.80;61.10;;;;;;10410753;28;20029;-60
2021/06/03 06:39:10;;;;;;;4.72;4.22;;;21.80;61.00;;;;;;10410758;28;20041;-60
2021/06/03 06:44:12;;;;;;;4.47;4.07;;;21.80;60.70;;;;;;10413103;28;20385;-60
2021/06/03 06:49:13;;;;;;;5.90;4.80;;;21.80;60.60;;;;;;10417710;28;20033;-61
2021/06/03 06:54:14;;;;;;;8.05;4.75;;;21.80;60.60;;;;;;10419702;28;20473;-60
2021/06/03 06:59:14;;;;;;;6.60;4.22;;;21.80;60.70;;;;;;10407736;28;20159;-60
2021/06/03 07:04:15;;;;;;;6.53;4.82;;;21.90;60.70;;;;;;10419423;28;20032;-60
2021/06/03 07:09:16;;;;;;;5.30;4.28;;;21.90;60.80;;;;;;10420585;28;20029;-61
2021/06/03 07:14:17;;;;;;;4.35;3.67;;;21.90;60.90;;;;;;10422350;28;20030;-60
2021/06/03 07:19:17;;;;;;;5.47;4.45;;;21.90;60.80;;;;;;10418707;28;20447;-60
2021/06/03 07:24:19;;;;;;;4.55;3.50;;;22.00;60.80;;;;;;10419853;28;20482;-60
2021/06/03 07:29:19;;;;;;;5.72;3.58;;;22.00;60.80;;;;;;10419601;28;20490;-61
2021/06/03 07:34:20;;;;;;;5.45;3.50;;;22.00;60.80;;;;;;10419418;28;20100;-60
2021/06/03 07:39:22;;;;;;;4.93;3.97;;;22.00;60.70;;;;;;10418888;28;20332;-60
2021/06/03 07:44:22;;;;;;;4.35;3.70;;;22.00;60.70;;;;;;10418955;28;20017;-61
2021/06/03 07:49:23;;;;;;;5.80;4.38;;;22.00;60.80;;;;;;10418831;28;20529;-61
2021/06/03 07:54:24;;;;;;;4.90;4.05;;;22.00;61.00;;;;;;10433866;28;20454;-61
2021/06/03 07:59:25;;;;;;;4.80;4.07;;;22.00;61.00;;;;;;10417969;28;20501;-61
2021/06/03 08:04:25;;;;;;;5.43;4.53;;;22.10;60.90;;;;;;10418414;28;20033;-61
2021/06/03 08:09:26;;;;;;;5.57;4.45;;;22.00;60.70;;;;;;10418035;28;20108;-60
2021/06/03 08:14:27;;;;;;;4.97;3.75;;;22.10;60.80;;;;;;10420247;28;20065;-60
2021/06/03 08:19:27;;;;;;;5.53;4.47;;;22.10;60.80;;;;;;10418028;28;20136;-61
2021/06/03 08:24:28;;;;;;;5.25;3.90;;;22.10;60.80;;;;;;10417371;28;20061;-61
2021/06/03 08:29:29;;;;;;;6.22;4.45;;;22.00;60.70;;;;;;10432959;28;20052;-61
2021/06/03 08:34:30;;;;;;;5.72;4.25;;;22.10;61.00;;;;;;10417162;28;20040;-59
2021/06/03 08:39:30;;;;;;;5.65;4.65;;;22.10;60.90;;;;;;10416701;28;20124;-60
2021/06/03 08:44:32;;;;;;;4.03;3.28;;;22.10;60.90;;;;;;10415296;28;20032;-61
2021/06/03 08:49:33;;;;;;;4.53;4.13;;;22.10;60.90;;;;;;10415301;28;20559;-60
2021/06/03 08:54:37;;;;;;;5.28;4.25;;;22.10;60.80;;;;;;10415042;28;20094;-60
2021/06/03 08:59:38;;;;;;;4.78;4.25;;;22.10;61.00;;;;;;10416177;28;20034;-61
2021/06/03 09:04:40;;;;;;;7.55;4.00;;;22.10;60.90;;;;;;10415980;28;20033;-61
2021/06/03 09:09:41;;;;;;;4.88;3.80;;;22.10;60.70;;;;;;10415778;28;20037;-61
2021/06/03 09:14:42;;;;;;;5.03;4.45;;;22.10;60.80;;;;;;10418316;28;20206;-60
2021/06/03 09:19:54;;;;;;;5.18;4.68;;;22.10;60.90;;;;;;10415113;28;20053;-60
2021/06/03 09:24:56;;;;;;;4.82;4.25;;;22.10;60.90;;;;;;10415305;28;20466;-59
2021/06/03 09:30:03;;;;;;;6.15;4.00;;;22.10;61.00;;;;;;10414575;28;20043;-60
2021/06/03 09:35:04;;;;;;;4.70;4.13;;;22.10;61.00;;;;;;10414515;28;20033;-61
2021/06/03 09:40:06;;;;;;;5.43;4.22;;;22.20;61.20;;;;;;10414550;28;20433;-60
2021/06/03 09:45:07;;;;;;;4.22;3.83;;;22.20;61.30;;;;;;10414438;28;20099;-60
2021/06/03 09:50:10;;;;;;;4.13;3.72;;;22.20;61.20;;;;;;10414233;28;20049;-61
2021/06/03 09:55:13;;;;;;;4.70;4.18;;;22.20;61.10;;;;;;10414227;28;20026;-60
2021/06/03 10:00:20;;;;;;;4.15;3.65;;;22.20;61.20;;;;;;10414069;28;20105;-60
2021/06/03 10:05:22;;;;;;;6.13;5.30;;;22.20;61.10;;;;;;10413925;28;20041;-60
2021/06/03 10:10:26;;;;;;;6.13;4.13;;;22.20;61.30;;;;;;10414098;28;20029;-60
2021/06/03 10:15:28;;;;;;;4.75;4.28;;;22.20;61.20;;;;;;10416839;28;20064;-60
2021/06/03 10:20:45;;;;;;;5.65;4.70;;;22.20;61.30;;;;;;10413575;28;20044;-61
2021/06/03 10:26:08;;;;;;;4.70;4.18;;;22.30;61.50;;;;;;10421431;28;20029;-60
2021/06/03 10:31:12;;;;;;;5.28;4.30;;;22.20;61.50;;;;;;10421557;28;20540;-60
2021/06/03 10:36:13;;;;;;;5.60;4.95;;;22.20;61.40;;;;;;10421657;28;20081;-59
2021/06/03 10:41:16;;;;;;;4.95;3.65;;;22.30;61.30;;;;;;10420832;28;20117;-61
2021/06/03 10:46:17;;;;;;;5.07;4.20;;;22.30;61.50;;;;;;10421358;28;20040;-61
2021/06/03 10:51:18;;;;;;;4.97;3.58;;;22.20;61.50;;;;;;10436626;28;20544;-61
2021/06/03 10:56:22;;;;;;;5.72;4.28;;;22.20;61.40;;;;;;10419758;28;20037;-60
2021/06/03 11:01:24;;;;;;;5.32;4.55;;;22.20;61.30;;;;;;10420781;28;20032;-61
2021/06/03 11:06:28;;;;;;;6.93;4.50;;;22.30;61.40;;;;;;10420568;28;20025;-61
2021/06/03 11:11:47;;;;;;;4.00;3.58;;;22.30;61.40;;;;;;10420689;28;20609;-61
2021/06/03 11:16:55;;;;;;;6.75;4.53;;;22.30;61.40;;;;;;10419007;28;20021;-60
2021/06/03 11:22:07;;;;;;;5.53;4.72;;;22.30;61.60;;;;;;10420085;28;20033;-60
2021/06/03 11:27:11;;;;;;;4.90;4.38;;;22.20;61.80;;;;;;10419007;28;20028;-59
2021/06/03 11:32:20;;;;;;;4.22;3.83;;;22.30;61.70;;;;;;10419520;28;20075;-60
2021/06/03 11:37:34;;;;;;;5.28;4.40;;;22.20;61.50;;;;;;10418158;28;20060;-60
2021/06/03 11:42:40;;;;;;;4.65;4.15;;;22.30;61.60;;;;;;10419151;28;20033;-60
2021/06/03 11:47:44;;;;;;;5.28;4.47;;;22.30;61.60;;;;;;10417788;28;20394;-60
2021/06/03 11:52:58;;;;;;;4.75;4.32;;;22.20;62.00;;;;;;10418832;28;20163;-60
2021/06/03 11:58:20;;;;;;;5.68;4.72;;;22.30;61.70;;;;;;10418247;28;20033;-60
2021/06/03 12:03:39;;;;;;;5.07;4.30;;;22.30;61.60;;;;;;10418626;28;20108;-60
2021/06/03 12:08:57;;;;;;;6.22;5.40;;;22.20;61.60;;;;;;10417879;28;20021;-59
2021/06/03 12:14:12;;;;;;;5.40;4.50;;;22.30;61.70;;;;;;10420415;28;20079;-61
2021/06/03 12:19:26;;;;;;;4.53;4.13;;;22.30;61.80;;;;;;10416791;28;20116;-61
2021/06/03 12:24:49;;;;;;;5.38;4.82;;;22.30;61.90;;;;;;10417674;28;20485;-60
2021/06/03 12:29:52;;;;;;;5.43;4.20;;;22.20;61.80;;;;;;10416265;28;20037;-60
2021/06/03 12:35:00;;;;;;;5.13;4.57;;;22.30;61.90;;;;;;10417187;28;20029;-61
2021/06/03 12:40:19;;;;;;;4.67;4.27;;;22.40;62.00;;;;;;10415339;28;20048;-60
2021/06/03 12:45:20;;;;;;;4.93;4.40;;;22.40;61.90;;;;;;10416622;28;20724;-60
2021/06/03 12:50:20;;;;;;;6.07;4.97;;;22.40;61.90;;;;;;10416666;28;20092;-59
2021/06/03 12:55:23;;;;;;;5.50;4.25;;;22.40;61.90;;;;;;10416895;28;20063;-60
2021/06/03 13:00:26;;;;;;;5.43;4.75;;;22.40;61.80;;;;;;10414896;28;20044;-60
2021/06/03 13:05:27;;;;;;;6.57;5.18;;;22.50;62.00;;;;;;10415973;28;20067;-60
2021/06/03 13:10:28;;;;;;;5.53;4.43;;;22.40;61.90;;;;;;10416092;28;20152;-61
2021/06/03 13:15:35;;;;;;;5.85;5.32;;;22.40;62.00;;;;;;10418441;28;20037;-61
2021/06/03 13:20:46;;;;;;;5.13;4.63;;;22.40;62.00;;;;;;10415319;28;20033;-60
2021/06/03 13:25:51;;;;;;;7.07;5.43;;;22.40;62.00;;;;;;10415436;28;20029;-60
2021/06/03 13:30:59;;;;;;;6.57;5.97;;;22.40;62.20;;;;;;10415264;28;20052;-60
2021/06/03 13:36:03;;;;;;;6.10;5.22;;;22.40;62.40;;;;;;10414570;28;20037;-60
2021/06/03 13:41:05;;;;;;;4.97;4.10;;;22.40;62.90;;;;;;10414687;28;20473;-60
2021/06/03 13:46:12;;;;;;;6.15;5.55;;;22.40;62.30;;;;;;10414414;28;20029;-60
2021/06/03 13:51:21;;;;;;;5.15;4.65;;;22.40;62.60;;;;;;10414750;28;20389;-60
2021/06/03 13:56:26;;;;;;;5.22;4.75;;;22.40;62.60;;;;;;10414257;28;20509;-61
2021/06/03 14:01:40;;;;;;;6.68;5.50;;;22.50;62.70;;;;;;10412911;28;20030;-60
2021/06/03 14:06:41;;;;;;;5.50;5.00;;;22.50;62.80;;;;;;10413925;28;20101;-60
2021/06/03 14:17:08;;;;;;;6.80;6.20;;;22.50;62.70;;;;;;10402289;28;20048;-60
2021/06/03 14:22:29;;;;;;;6.80;6.10;;;22.50;62.70;;;;;;10414120;28;20040;-60
2021/06/03 14:27:37;;;;;;;6.50;5.90;;;22.50;62.70;;;;;;10413721;28;20426;-60
2021/06/03 14:32:50;;;;;;;6.90;6.20;;;22.50;62.80;;;;;;10414169;28;20474;-60
2021/06/03 14:37:56;;;;;;;6.82;5.47;;;22.50;62.80;;;;;;10413210;28;20056;-60
2021/06/03 14:43:36;;;;;;;6.32;5.75;;;22.50;62.80;;;;;;10413473;28;20032;-60
2021/06/03 14:48:38;;;;;;;;;;;22.60;63.00;;;;;;10413703;28;20104;-60
2021/06/03 14:53:40;;;;;;;6.07;5.47;;;22.60;63.00;;;;;;10413532;28;19940;-60
2021/06/03 14:58:41;;;;;;;5.80;5.30;;;22.60;62.90;;;;;;10413153;28;20029;-60
2021/06/03 15:03:41;;;;;;;5.97;5.22;;;22.60;62.90;;;;;;10413203;28;20029;-60
2021/06/03 15:08:42;;;;;;;7.03;5.53;;;22.60;62.90;;;;;;10414926;28;20503;-60
2021/06/03 15:13:43;;;;;;;6.95;6.25;;;22.60;63.00;;;;;;10422800;28;20053;-60
2021/06/03 15:18:43;;;;;;;6.38;5.78;;;22.60;63.00;;;;;;10420176;28;20104;-60
2021/06/03 15:23:44;;;;;;;6.80;6.10;;;22.60;63.00;;;;;;10419896;28;20541;-60
2021/06/03 15:28:45;;;;;;;6.53;5.82;;;22.60;63.00;;;;;;10419731;28;20029;-61
2021/06/03 15:33:45;;;;;;;6.28;5.68;;;22.50;62.90;;;;;;10419752;28;20120;-60
2021/06/03 15:38:46;;;;;;;6.60;5.90;;;22.60;62.90;;;;;;10419061;28;20053;-60
2021/06/03 15:43:47;;;;;;;7.25;5.93;;;22.50;63.00;;;;;;10419299;28;20052;-60
2021/06/03 15:48:48;;;;;;;6.28;5.68;;;22.60;63.00;;;;;;10419433;28;20025;-60
2021/06/03 15:53:49;;;;;;;6.53;5.85;;;22.60;63.10;;;;;;10418883;28;20029;-60
2021/06/03 15:58:50;;;;;;;6.97;5.97;;;22.50;63.10;;;;;;10405171;28;20076;-61
2021/06/03 16:03:51;;;;;;;7.35;6.35;;;22.60;63.10;;;;;;10433145;28;20496;-60
2021/06/03 16:08:52;;;;;;;8.65;7.85;;;22.60;63.40;;;;;;10416718;28;20033;-59
2021/06/03 16:13:52;;;;;;;11.93;10.73;;;22.60;64.40;;;;;;10420573;28;20104;-59
2021/06/03 16:18:54;;;;;;;12.52;11.27;;;22.60;65.60;;;;;;10432962;28;20076;-58
2021/06/03 16:23:54;;;;;;;9.63;8.45;;;22.60;65.80;;;;;;10415360;28;20021;-58
2021/06/03 16:28:57;;;;;;;10.85;8.65;;;22.50;66.20;;;;;;10416966;28;20116;-59
2021/06/03 16:33:59;;;;;;;13.13;8.55;;;22.70;68.20;;;;;;10417203;28;20060;-58
2021/06/03 16:39:00;;;;;;;9.43;8.40;;;22.70;68.10;;;;;;10415690;28;20048;-58
2021/06/03 16:44:04;;;;;;;14.43;8.07;;;22.70;68.10;;;;;;10417104;28;20032;-58
2021/06/03 16:49:06;;;;;;;13.10;8.45;;;22.70;67.80;;;;;;10415265;28;20036;-57
2021/06/03 16:54:07;;;;;;;18.15;7.30;;;22.80;67.90;;;;;;10416001;28;20033;-59
2021/06/03 16:59:08;;;;;;;8.15;6.97;;;22.80;67.40;;;;;;10415652;28;20034;-60
2021/06/03 17:04:09;;;;;;;8.38;6.90;;;22.80;66.70;;;;;;10414948;28;20091;-58
2021/06/03 17:09:09;;;;;;;9.07;6.75;;;22.70;66.40;;;;;;10414515;28;20108;-60
2021/06/03 17:14:10;;;;;;;10.20;7.30;;;22.70;66.20;;;;;;10421356;28;20043;-59
2021/06/03 17:19:11;;;;;;;7.68;6.50;;;22.70;65.90;;;;;;10414616;28;20029;-57
2021/06/03 17:24:12;;;;;;;6.85;6.15;;;22.70;66.00;;;;;;10413088;28;20485;-61
2021/06/03 17:29:13;;;;;;;9.25;8.38;;;22.70;66.10;;;;;;10414825;28;20033;-61
2021/06/03 17:34:14;;;;;;;9.77;7.63;;;22.70;67.40;;;;;;10412519;28;20033;-62
2021/06/03 17:39:14;;;;;;;10.02;8.27;;;22.70;67.60;;;;;;10413394;28;20044;-61
2021/06/03 17:44:15;;;;;;;9.50;8.25;;;22.70;67.70;;;;;;10413607;28;20385;-61
2021/06/03 17:49:16;;;;;;;9.77;8.88;;;22.70;67.80;;;;;;10412944;28;20061;-61
2021/06/03 17:54:17;;;;;;;9.93;8.93;;;22.70;68.00;;;;;;10412478;28;20017;-61
2021/06/03 17:59:17;;;;;;;9.52;8.60;;;22.70;68.10;;;;;;10412987;28;20036;-61
2021/06/03 18:04:18;;;;;;;9.75;8.85;;;22.70;68.30;;;;;;10413138;28;20083;-61
2021/06/03 18:09:19;;;;;;;8.98;8.07;;;22.70;68.20;;;;;;10413638;28;20187;-61
2021/06/03 18:14:20;;;;;;;9.40;8.18;;;22.70;67.90;;;;;;10414595;28;20442;-61
2021/06/03 18:19:21;;;;;;;8.15;7.07;;;22.70;67.80;;;;;;10412026;28;20029;-60
2021/06/03 18:24:22;;;;;;;7.70;6.72;;;22.60;67.50;;;;;;10413613;28;20029;-61
2021/06/03 18:29:22;;;;;;;7.38;6.68;;;22.70;67.60;;;;;;10413162;28;20030;-60
2021/06/03 18:34:24;;;;;;;7.85;6.88;;;22.60;67.60;;;;;;10411932;28;20032;-60
2021/06/03 18:39:25;;;;;;;7.50;6.78;;;22.70;66.70;;;;;;10412578;28;20084;-61
2021/06/03 18:44:26;;;;;;;7.38;6.68;;;22.70;66.50;;;;;;10415971;28;20454;-61
2021/06/03 18:49:26;;;;;;;7.63;6.40;;;22.70;66.30;;;;;;10421063;28;20095;-61
2021/06/03 18:54:27;;;;;;;9.15;7.53;;;22.70;66.20;;;;;;10415567;28;20556;-61
2021/06/03 18:59:28;;;;;;;7.50;6.90;;;22.70;67.20;;;;;;10413103;28;20101;-60
2021/06/03 19:04:39;;;;;;;9.10;7.30;;;22.70;67.40;;;;;;10420463;28;20124;-61
2021/06/03 19:09:39;;;;;;;8.50;7.63;;;22.70;67.20;;;;;;10420398;28;20072;-61
2021/06/03 19:14:40;;;;;;;6.55;5.95;;;22.60;66.90;;;;;;10419592;28;20169;-61
2021/06/03 19:19:41;;;;;;;7.18;6.40;;;22.70;66.50;;;;;;10419446;28;20456;-60
2021/06/03 19:24:42;;;;;;;8.25;6.60;;;22.60;66.70;;;;;;10425582;28;20044;-58
2021/06/03 19:29:42;;;;;;;7.85;6.72;;;22.70;67.40;;;;;;10418698;28;20112;-59
2021/06/03 19:34:43;;;;;;;7.28;6.57;;;22.60;67.50;;;;;;10419186;28;20095;-59
2021/06/03 19:39:44;;;;;;;9.13;6.80;;;22.70;67.00;;;;;;10418634;28;20045;-60
2021/06/03 19:44:44;;;;;;;6.78;6.18;;;22.60;67.60;;;;;;10419267;28;20500;-59
2021/06/03 19:49:45;;;;;;;7.15;6.45;;;22.60;67.10;;;;;;10419421;28;20029;-59
2021/06/03 19:54:46;;;;;;;6.70;6.00;;;22.60;66.70;;;;;;10418299;28;20060;-59
2021/06/03 19:59:46;;;;;;;6.90;6.28;;;22.60;66.80;;;;;;10418669;28;20088;-59
2021/06/03 20:04:47;;;;;;;6.00;5.43;;;22.50;66.60;;;;;;10418067;28;20026;-61
2021/06/03 20:09:48;;;;;;;7.85;6.30;;;22.50;66.40;;;;;;10414425;28;20163;-59
2021/06/03 20:14:48;;;;;;;7.32;6.63;;;22.60;66.90;;;;;;10414888;28;20513;-59
2021/06/03 20:19:49;;;;;;;7.38;6.65;;;22.50;66.70;;;;;;10416119;28;20059;-59
2021/06/03 20:24:50;;;;;;;7.35;6.63;;;22.60;66.60;;;;;;10415833;28;20104;-59
2021/06/03 20:29:53;;;;;;;7.20;6.57;;;22.60;66.60;;;;;;10415967;28;20031;-60
2021/06/03 20:34:54;;;;;;;7.30;6.60;;;22.50;66.50;;;;;;10414924;28;20037;-59
2021/06/03 20:39:54;;;;;;;6.63;6.03;;;22.50;66.60;;;;;;10415794;28;20046;-59
2021/06/03 20:44:55;;;;;;;7.53;6.80;;;22.50;66.40;;;;;;10416577;28;20480;-59
2021/06/03 20:49:56;;;;;;;7.20;6.50;;;22.50;66.40;;;;;;10416136;28;20029;-59
2021/06/03 20:54:57;;;;;;;6.50;5.90;;;22.50;66.50;;;;;;10415424;28;20041;-59
2021/06/03 20:59:57;;;;;;;6.35;5.78;;;22.50;66.50;;;;;;10414992;28;20457;-53
2021/06/03 21:04:58;;;;;;;7.88;7.15;;;22.50;66.50;;;;;;10414976;28;20057;-51
2021/06/03 21:09:59;;;;;;;7.28;6.60;;;22.50;66.50;;;;;;10430957;28;20033;-52
2021/06/03 21:15:01;;;;;;;7.88;7.18;;;22.50;66.50;;;;;;10416341;28;20039;-49
2021/06/03 21:20:03;;;;;;;7.22;6.53;;;22.50;66.40;;;;;;10415659;28;20083;-52
2021/06/03 21:25:07;;;;;;;7.30;6.53;;;22.50;66.50;;;;;;10415676;28;20044;-53
2021/06/03 21:30:11;;;;;;;6.45;5.88;;;22.50;66.40;;;;;;10415567;28;20033;-49
2021/06/03 21:35:14;;;;;;;6.55;5.95;;;22.50;66.30;;;;;;10415373;28;20037;-49
2021/06/03 21:40:19;;;;;;;7.05;6.35;;;22.50;66.30;;;;;;10414870;28;20502;-49
2021/06/03 21:45:20;;;;;;;5.95;5.45;;;22.50;66.30;;;;;;10414132;28;20051;-51
2021/06/03 21:50:21;;;;;;;7.22;6.63;;;22.50;66.30;;;;;;10414907;28;20041;-53
2021/06/03 21:55:22;;;;;;;7.05;6.35;;;22.40;66.30;;;;;;10414617;28;20029;-52
2021/06/03 22:00:44;;;;;;;7.55;6.82;;;22.40;66.20;;;;;;10414143;28;20036;-49
2021/06/03 22:05:45;;;;;;;7.70;7.00;;;22.40;66.30;;;;;;10414046;28;20390;-50
2021/06/03 22:10:47;;;;;;;7.40;6.70;;;22.40;66.30;;;;;;10414486;28;20017;-53
2021/06/03 22:15:48;;;;;;;6.55;5.90;;;22.40;66.30;;;;;;10415175;28;20065;-51
2021/06/03 22:20:49;;;;;;;7.20;6.50;;;22.40;66.20;;;;;;10420405;28;20057;-48
2021/06/03 22:25:54;;;;;;;7.53;6.60;;;22.40;66.20;;;;;;10422191;28;20025;-49
2021/06/03 22:30:55;;;;;;;6.93;6.32;;;22.40;66.20;;;;;;10422448;28;20037;-52
2021/06/03 22:35:56;;;;;;;7.18;6.43;;;22.40;66.20;;;;;;10421795;28;20545;-49
2021/06/03 22:41:00;;;;;;;6.95;6.38;;;22.40;66.30;;;;;;10421634;28;20037;-47
2021/06/03 22:46:03;;;;;;;6.93;6.22;;;22.30;66.30;;;;;;10421391;28;20091;-47
2021/06/03 22:51:16;;;;;;;6.82;6.22;;;22.40;66.30;;;;;;10421982;28;20040;-53
2021/06/03 22:56:22;;;;;;;7.55;6.20;;;22.40;66.40;;;;;;10412509;28;20041;-53
2021/06/03 23:01:29;;;;;;;6.75;6.13;;;22.40;66.30;;;;;;10421559;28;20029;-52
2021/06/03 23:06:31;;;;;;;6.03;5.43;;;22.40;66.30;;;;;;10417948;28;20478;-51
2021/06/03 23:11:40;;;;;;;6.38;5.68;;;22.40;66.30;;;;;;10420576;28;20029;-53
2021/06/03 23:16:42;;;;;;;7.50;6.80;;;22.40;66.20;;;;;;10406209;28;20148;-51
2021/06/03 23:21:47;;;;;;;6.40;5.80;;;22.40;66.30;;;;;;10420634;28;20421;-51
2021/06/03 23:26:49;;;;;;;6.78;6.20;;;22.40;66.30;;;;;;10420083;28;20037;-52
2021/06/03 23:31:50;;;;;;;6.65;6.05;;;22.30;66.30;;;;;;10420250;28;20033;-47
2021/06/03 23:36:51;;;;;;;6.45;5.75;;;22.30;66.30;;;;;;10418701;28;20068;-48
2021/06/03 23:41:52;;;;;;;6.90;6.30;;;22.30;66.40;;;;;;10419358;28;20044;-47
2021/06/03 23:46:52;;;;;;;6.78;6.18;;;22.30;66.40;;;;;;10419401;28;20393;-51
2021/06/03 23:51:53;;;;;;;6.60;6.00;;;22.30;66.30;;;;;;10419326;28;20029;-53
2021/06/03 23:56:54;;;;;;;7.20;6.50;;;22.30;66.30;;;;;;10418851;28;20034;-49
